Time;durP1;ratioP1;P1;durP2;ratioP2;P2;SDS_P1;SDS_P2;PMS_P1;PMS_P2;Temp;Humidity;BMP_temperature;BMP_pressure;BME280_temperature;BME280_humidity;BME280_pressure;Samples;Min_cycle;Max_cycle;Signal;HPM_P1;HPM_P2
2023/07/14 00:00:29;;;;;;;;;;;;;;;;;;5303960;28;20350;-76
2023/07/14 00:03:00;;;;;;;;;;;;;;;;;;5304927;28;19908;-76
2023/07/14 00:05:32;;;;;;;;;;;;;;;;;;5303929;28;19904;-76
2023/07/14 00:08:06;;;;;;;;;;;;;;;;;;5305043;28;19904;-76
2023/07/14 00:10:37;;;;;;;;;;;;;;;;;;5304304;28;19950;-76
2023/07/14 00:13:08;;;;;;;;;;;;;;;;;;5304094;28;19904;-76
2023/07/14 00:15:39;;;;;;;;;;;;;;;;;;5304187;28;19910;-76
2023/07/14 00:18:10;;;;;;;;;;;;;;;;;;5304795;28;20262;-76
2023/07/14 00:20:41;;;;;;;;;;;;;;;;;;5303486;28;19904;-76
2023/07/14 00:23:13;;;;;;;;;;;;;;;;;;5303594;28;20003;-76
2023/07/14 00:25:44;;;;;;;;;;;;;;;;;;5304007;28;20002;-76
2023/07/14 00:28:15;;;;;;;;;;;;;;;;;;5304002;28;20002;-76
2023/07/14 00:30:46;;;;;;;;;;;;;;;;;;5303993;28;19904;-76
2023/07/14 00:33:17;;;;;;;;;;;;;;;;;;5304569;28;19965;-76
2023/07/14 00:35:48;;;;;;;;;;;;;;;;;;5303060;28;20327;-75
2023/07/14 00:38:20;;;;;;;;;;;;;;;;;;5304261;28;19966;-76
2023/07/14 00:40:51;;;;;;;;;;;;;;;;;;5303005;28;19908;-75
2023/07/14 00:43:24;;;;;;;;;;;;;;;;;;5304418;28;20378;-75
2023/07/14 00:45:55;;;;;;;;;;;;;;;;;;5304010;28;20375;-75
2023/07/14 00:48:26;;;;;;;;;;;;;;;;;;5303113;28;19987;-75
2023/07/14 00:50:57;;;;;;;;;;;;;;;;;;5303861;28;19911;-75
2023/07/14 00:53:28;;;;;;;;;;;;;;;;;;5303847;28;19901;-76
2023/07/14 00:55:59;;;;;;;;;;;;;;;;;;5303114;28;20275;-76
2023/07/14 00:58:31;;;;;;;;;;;;;;;;;;5303480;28;19919;-75
2023/07/14 01:01:02;;;;;;;;;;;;;;;;;;5303983;28;20061;-75
2023/07/14 01:03:39;;;;;;;;;;;;;;;;;;5302777;28;19911;-75
2023/07/14 01:06:10;;;;;;;;;;;;;;;;;;5304109;28;19904;-75
2023/07/14 01:08:41;;;;;;;;;;;;;;;;;;5302598;28;19911;-76
2023/07/14 01:11:12;;;;;;;;;;;;;;;;;;5303825;28;19904;-75
2023/07/14 01:13:43;;;;;;;;;;;;;;;;;;5303147;28;19915;-75
2023/07/14 01:16:15;;;;;;;;;;;;;;;;;;5303151;28;20007;-76
2023/07/14 01:18:46;;;;;;;;;;;;;;;;;;5303207;28;19922;-75
2023/07/14 01:21:17;;;;;;;;;;;;;;;;;;5303788;28;19979;-75
2023/07/14 01:23:48;;;;;;;;;;;;;;;;;;5302264;28;19912;-75
2023/07/14 01:26:19;;;;;;;;;;;;;;;;;;5303474;28;19904;-76
2023/07/14 01:28:50;;;;;;;;;;;;;;;;;;5302866;28;19911;-75
2023/07/14 01:31:22;;;;;;;;;;;;;;;;;;5302893;28;19915;-75
2023/07/14 01:33:53;;;;;;;;;;;;;;;;;;5302902;28;19915;-75
2023/07/14 01:36:24;;;;;;;;;;;;;;;;;;5303012;28;19915;-75
2023/07/14 01:38:55;;;;;;;;;;;;;;;;;;5302468;28;19966;-75
2023/07/14 01:41:26;;;;;;;;;;;;;;;;;;5303425;28;19914;-74
2023/07/14 01:43:57;;;;;;;;;;;;;;;;;;5302365;28;19987;-75
2023/07/14 01:46:28;;;;;;;;;;;;;;;;;;5303200;28;19904;-75
2023/07/14 01:49:01;;;;;;;;;;;;;;;;;;5302916;28;19904;-75
2023/07/14 01:51:33;;;;;;;;;;;;;;;;;;5302098;28;19910;-75
2023/07/14 01:54:04;;;;;;;;;;;;;;;;;;5303269;28;19904;-76
2023/07/14 01:56:35;;;;;;;;;;;;;;;;;;5302681;28;19915;-75
2023/07/14 01:59:06;;;;;;;;;;;;;;;;;;5302332;28;19941;-76
2023/07/14 02:01:37;;;;;;;;;;;;;;;;;;5302568;28;20270;-76
2023/07/14 02:04:08;;;;;;;;;;;;;;;;;;5303144;28;19904;-76
2023/07/14 02:06:40;;;;;;;;;;;;;;;;;;5301908;28;19904;-76
2023/07/14 02:09:11;;;;;;;;;;;;;;;;;;5303380;28;19971;-76
2023/07/14 02:11:43;;;;;;;;;;;;;;;;;;5302481;28;19912;-75
2023/07/14 02:14:14;;;;;;;;;;;;;;;;;;5302269;28;19998;-76
2023/07/14 02:16:46;;;;;;;;;;;;;;;;;;5302513;28;20431;-75
2023/07/14 02:19:17;;;;;;;;;;;;;;;;;;5302243;28;20026;-76
2023/07/14 02:21:48;;;;;;;;;;;;;;;;;;5302454;28;19933;-76
2023/07/14 02:24:19;;;;;;;;;;;;;;;;;;5303004;28;19911;-75
2023/07/14 02:26:50;;;;;;;;;;;;;;;;;;5301485;28;19927;-75
2023/07/14 02:29:21;;;;;;;;;;;;;;;;;;5303133;28;19927;-75
2023/07/14 02:31:52;;;;;;;;;;;;;;;;;;5302227;28;19916;-75
2023/07/14 02:34:23;;;;;;;;;;;;;;;;;;5301906;28;19911;-75
2023/07/14 02:36:55;;;;;;;;;;;;;;;;;;5302546;28;19987;-75
2023/07/14 02:39:26;;;;;;;;;;;;;;;;;;5302880;28;19912;-75
2023/07/14 02:41:59;;;;;;;;;;;;;;;;;;5301895;28;19958;-75
2023/07/14 02:44:31;;;;;;;;;;;;;;;;;;5302300;28;20355;-75
2023/07/14 02:47:02;;;;;;;;;;;;;;;;;;5304268;28;19997;-75
2023/07/14 02:49:33;;;;;;;;;;;;;;;;;;5305055;28;19991;-75
2023/07/14 02:52:04;;;;;;;;;;;;;;;;;;5306743;28;20003;-75
2023/07/14 02:54:37;;;;;;;;;;;;;;;;;;5305284;28;20029;-75
2023/07/14 02:57:08;;;;;;;;;;;;;;;;;;5306577;28;20355;-75
2023/07/14 02:59:39;;;;;;;;;;;;;;;;;;5305817;28;19998;-76
2023/07/14 03:02:10;;;;;;;;;;;;;;;;;;5305552;28;20456;-75
2023/07/14 03:04:41;;;;;;;;;;;;;;;;;;5305844;28;19958;-76
2023/07/14 03:07:14;;;;;;;;;;;;;;;;;;5306237;28;19904;-75
2023/07/14 03:09:45;;;;;;;;;;;;;;;;;;5304818;28;20362;-75
2023/07/14 03:12:16;;;;;;;;;;;;;;;;;;5306242;28;19911;-75
2023/07/14 03:14:47;;;;;;;;;;;;;;;;;;5305431;28;19944;-75
2023/07/14 03:17:18;;;;;;;;;;;;;;;;;;5305399;28;19912;-76
2023/07/14 03:19:50;;;;;;;;;;;;;;;;;;5305572;28;20354;-76
2023/07/14 03:22:23;;;;;;;;;;;;;;;;;;5305324;28;19958;-76
2023/07/14 03:24:54;;;;;;;;;;;;;;;;;;5305426;28;19994;-76
2023/07/14 03:27:25;;;;;;;;;;;;;;;;;;5305750;28;20427;-76
2023/07/14 03:29:56;;;;;;;;;;;;;;;;;;5304769;28;19995;-76
2023/07/14 03:32:27;;;;;;;;;;;;;;;;;;5305041;28;19916;-75
2023/07/14 03:34:59;;;;;;;;;;;;;;;;;;5305190;28;19904;-75
2023/07/14 03:37:30;;;;;;;;;;;;;;;;;;5304096;28;19916;-75
2023/07/14 03:40:01;;;;;;;;;;;;;;;;;;5305461;28;20024;-75
2023/07/14 03:42:32;;;;;;;;;;;;;;;;;;5304563;28;19935;-75
2023/07/14 03:45:03;;;;;;;;;;;;;;;;;;5304820;28;20355;-75
2023/07/14 03:47:36;;;;;;;;;;;;;;;;;;5304686;28;19900;-75
2023/07/14 03:50:07;;;;;;;;;;;;;;;;;;5305345;28;20267;-76
2023/07/14 03:52:38;;;;;;;;;;;;;;;;;;5304048;28;19900;-76
2023/07/14 03:55:09;;;;;;;;;;;;;;;;;;5305126;28;19991;-76
2023/07/14 03:57:41;;;;;;;;;;;;;;;;;;5303386;28;19999;-75
2023/07/14 04:00:12;;;;;;;;;;;;;;;;;;5304992;28;19947;-76
2023/07/14 04:02:43;;;;;;;;;;;;;;;;;;5304399;28;19908;-76
2023/07/14 04:05:15;;;;;;;;;;;;;;;;;;5304347;28;19907;-76
2023/07/14 04:07:46;;;;;;;;;;;;;;;;;;5304241;28;19958;-75
2023/07/14 04:10:18;;;;;;;;;;;;;;;;;;5305045;28;19903;-76
2023/07/14 04:12:49;;;;;;;;;;;;;;;;;;5303498;28;19915;-75
2023/07/14 04:15:21;;;;;;;;;;;;;;;;;;5304990;28;19926;-76
2023/07/14 04:17:52;;;;;;;;;;;;;;;;;;5304178;28;20342;-76
2023/07/14 04:20:23;;;;;;;;;;;;;;;;;;5303769;28;19983;-76
2023/07/14 04:22:55;;;;;;;;;;;;;;;;;;5304290;28;19904;-76
2023/07/14 04:25:26;;;;;;;;;;;;;;;;;;5304273;28;20283;-76
2023/07/14 04:27:57;;;;;;;;;;;;;;;;;;5303599;28;19955;-76
2023/07/14 04:30:28;;;;;;;;;;;;;;;;;;5304295;28;19904;-76
2023/07/14 04:32:59;;;;;;;;;;;;;;;;;;5303119;28;19923;-76
2023/07/14 04:35:30;;;;;;;;;;;;;;;;;;5303680;28;20377;-76
2023/07/14 04:38:01;;;;;;;;;;;;;;;;;;5304352;28;19912;-75
2023/07/14 04:40:33;;;;;;;;;;;;;;;;;;5303055;28;19911;-75
2023/07/14 04:43:04;;;;;;;;;;;;;;;;;;5304154;28;19904;-76
2023/07/14 04:45:35;;;;;;;;;;;;;;;;;;5303638;28;20370;-75
2023/07/14 04:48:06;;;;;;;;;;;;;;;;;;5303200;28;19911;-75
2023/07/14 04:50:37;;;;;;;;;;;;;;;;;;5303517;28;20477;-75
2023/07/14 04:53:09;;;;;;;;;;;;;;;;;;5303915;28;19904;-76
2023/07/14 04:55:40;;;;;;;;;;;;;;;;;;5302463;28;19923;-76
2023/07/14 04:58:11;;;;;;;;;;;;;;;;;;5303838;28;20377;-76
2023/07/14 05:00:43;;;;;;;;;;;;;;;;;;5303246;28;20295;-76
2023/07/14 05:03:15;;;;;;;;;;;;;;;;;;5303026;28;19904;-76
2023/07/14 05:05:46;;;;;;;;;;;;;;;;;;5303085;28;19908;-76
2023/07/14 05:08:17;;;;;;;;;;;;;;;;;;5302832;28;19904;-76
2023/07/14 05:10:48;;;;;;;;;;;;;;;;;;5302553;28;20377;-76
2023/07/14 05:13:19;;;;;;;;;;;;;;;;;;5303657;28;19911;-75
2023/07/14 05:15:51;;;;;;;;;;;;;;;;;;5302266;28;19952;-76
2023/07/14 05:18:22;;;;;;;;;;;;;;;;;;5303773;28;19965;-76
2023/07/14 05:20:53;;;;;;;;;;;;;;;;;;5302768;28;19904;-76
2023/07/14 05:23:26;;;;;;;;;;;;;;;;;;5302441;28;20014;-76
2023/07/14 05:25:57;;;;;;;;;;;;;;;;;;5303248;28;19919;-75
2023/07/14 05:28:28;;;;;;;;;;;;;;;;;;5303311;28;20304;-76
2023/07/14 05:31:00;;;;;;;;;;;;;;;;;;5302398;28;19909;-76
2023/07/14 05:33:31;;;;;;;;;;;;;;;;;;5302718;28;19920;-75
2023/07/14 05:36:02;;;;;;;;;;;;;;;;;;5302618;28;20271;-76
2023/07/14 05:38:33;;;;;;;;;;;;;;;;;;5302641;28;19912;-75
2023/07/14 05:41:04;;;;;;;;;;;;;;;;;;5303297;28;20358;-76
2023/07/14 05:43:35;;;;;;;;;;;;;;;;;;5302127;28;20282;-76
2023/07/14 05:46:06;;;;;;;;;;;;;;;;;;5303172;28;19908;-76
2023/07/14 05:48:37;;;;;;;;;;;;;;;;;;5302587;28;20330;-76
2023/07/14 05:51:09;;;;;;;;;;;;;;;;;;5302655;28;19935;-77
2023/07/14 05:53:40;;;;;;;;;;;;;;;;;;5302612;28;19904;-76
2023/07/14 05:56:11;;;;;;;;;;;;;;;;;;5303135;28;19958;-76
2023/07/14 05:58:42;;;;;;;;;;;;;;;;;;5301653;28;20437;-75
2023/07/14 06:01:13;;;;;;;;;;;;;;;;;;5303062;28;19956;-75
2023/07/14 06:03:44;;;;;;;;;;;;;;;;;;5302716;28;19956;-75
2023/07/14 06:06:15;;;;;;;;;;;;;;;;;;5302362;28;19961;-76
2023/07/14 06:08:47;;;;;;;;;;;;;;;;;;5302382;28;19904;-75
2023/07/14 06:11:18;;;;;;;;;;;;;;;;;;5302042;28;19912;-76
2023/07/14 06:13:49;;;;;;;;;;;;;;;;;;5302185;28;19908;-75
2023/07/14 06:16:21;;;;;;;;;;;;;;;;;;5303199;28;19994;-75
2023/07/14 06:18:53;;;;;;;;;;;;;;;;;;5301452;28;19912;-74
2023/07/14 06:21:24;;;;;;;;;;;;;;;;;;5303107;28;20369;-74
2023/07/14 06:23:55;;;;;;;;;;;;;;;;;;5306532;28;19904;-74
2023/07/14 06:26:28;;;;;;;;;;;;;;;;;;5305775;28;19931;-74
2023/07/14 06:28:59;;;;;;;;;;;;;;;;;;5306788;28;20353;-74
2023/07/14 06:31:30;;;;;;;;;;;;;;;;;;5305920;28;20013;-75
2023/07/14 06:34:01;;;;;;;;;;;;;;;;;;5306487;28;20266;-75
2023/07/14 06:36:32;;;;;;;;;;;;;;;;;;5305852;28;19910;-76
2023/07/14 06:39:04;;;;;;;;;;;;;;;;;;5306606;28;19911;-76
2023/07/14 06:41:35;;;;;;;;;;;;;;;;;;5305338;28;19904;-75
2023/07/14 06:44:06;;;;;;;;;;;;;;;;;;5306707;28;19904;-75
2023/07/14 06:46:37;;;;;;;;;;;;;;;;;;5305140;28;19905;-75
2023/07/14 06:49:09;;;;;;;;;;;;;;;;;;5306449;28;20261;-75
2023/07/14 06:51:40;;;;;;;;;;;;;;;;;;5306053;28;20385;-77
2023/07/14 06:54:11;;;;;;;;;;;;;;;;;;5305471;28;19944;-76
2023/07/14 06:56:42;;;;;;;;;;;;;;;;;;5305735;28;19927;-76
2023/07/14 06:59:13;;;;;;;;;;;;;;;;;;5306243;28;20301;-75
2023/07/14 07:01:44;;;;;;;;;;;;;;;;;;5310450;28;19904;-75
2023/07/14 07:04:15;;;;;;;;;;;;;;;;;;5327069;28;19914;-75
2023/07/14 07:06:46;;;;;;;;;;;;;;;;;;5326549;28;19994;-75
2023/07/14 07:09:17;;;;;;;;;;;;;;;;;;5308392;28;19957;-78
2023/07/14 07:11:49;;;;;;;;;;;;;;;;;;5326645;28;20611;-77
2023/07/14 07:14:20;;;;;;;;;;;;;;;;;;5326486;28;19957;-76
2023/07/14 07:16:51;;;;;;;;;;;;;;;;;;5323852;28;19911;-74
2023/07/14 07:19:22;;;;;;;;;;;;;;;;;;5327259;28;19903;-75
2023/07/14 07:21:53;;;;;;;;;;;;;;;;;;5325811;28;19990;-74
2023/07/14 07:24:24;;;;;;;;;;;;;;;;;;5303532;28;19904;-74
2023/07/14 07:26:55;;;;;;;;;;;;;;;;;;5305152;28;19904;-75
2023/07/14 07:29:27;;;;;;;;;;;;;;;;;;5304826;28;20265;-74
2023/07/14 07:31:58;;;;;;;;;;;;;;;;;;5304732;28;19923;-75
2023/07/14 07:34:29;;;;;;;;;;;;;;;;;;5302985;28;19900;-75
2023/07/14 07:37:00;;;;;;;;;;;;;;;;;;5303821;28;19933;-75
2023/07/14 07:39:31;;;;;;;;;;;;;;;;;;5308317;28;19999;-76
2023/07/14 07:42:02;;;;;;;;;;;;;;;;;;5326700;28;19948;-76
2023/07/14 07:44:34;;;;;;;;;;;;;;;;;;5325393;28;19908;-75
2023/07/14 07:47:05;;;;;;;;;;;;;;;;;;5326768;28;19904;-77
2023/07/14 07:49:36;;;;;;;;;;;;;;;;;;5324975;28;20042;-77
2023/07/14 07:52:07;;;;;;;;;;;;;;;;;;5326363;28;20010;-78
2023/07/14 07:54:38;;;;;;;;;;;;;;;;;;5325805;28;20266;-79
2023/07/14 07:57:09;;;;;;;;;;;;;;;;;;5325663;28;19915;-77
2023/07/14 07:59:40;;;;;;;;;;;;;;;;;;5325643;28;19915;-77
2023/07/14 08:02:11;;;;;;;;;;;;;;;;;;5325930;28;19904;-76
2023/07/14 08:04:43;;;;;;;;;;;;;;;;;;5324603;28;19910;-77
2023/07/14 08:07:14;;;;;;;;;;;;;;;;;;5326267;28;19910;-77
2023/07/14 08:09:45;;;;;;;;;;;;;;;;;;5325289;28;19911;-78
2023/07/14 08:12:16;;;;;;;;;;;;;;;;;;5324712;28;20368;-77
2023/07/14 08:14:47;;;;;;;;;;;;;;;;;;5325396;28;19904;-74
2023/07/14 08:17:18;;;;;;;;;;;;;;;;;;5309163;28;19922;-72
2023/07/14 08:19:50;;;;;;;;;;;;;;;;;;5301633;28;19930;-75
2023/07/14 08:22:21;;;;;;;;;;;;;;;;;;5303401;28;19995;-75
2023/07/14 08:24:52;;;;;;;;;;;;;;;;;;5333034;27;19903;-76
2023/07/14 08:27:23;;;;;;;;;;;;;;;;;;5345856;27;19956;-77
2023/07/14 08:29:55;;;;;;;;;;;;;;;;;;5345813;27;19907;-75
2023/07/14 08:32:26;;;;;;;;;;;;;;;;;;5344113;27;20013;-75
2023/07/14 08:34:57;;;;;;;;;;;;;;;;;;5345839;27;20300;-76
2023/07/14 08:37:28;;;;;;;;;;;;;;;;;;5345598;27;19912;-76
2023/07/14 08:40:00;;;;;;;;;;;;;;;;;;5344877;27;19984;-76
2023/07/14 08:42:31;;;;;;;;;;;;;;;;;;5345406;27;20342;-75
2023/07/14 08:45:03;;;;;;;;;;;;;;;;;;5344467;27;19903;-76
2023/07/14 08:47:34;;;;;;;;;;;;;;;;;;5345297;27;19956;-76
2023/07/14 08:50:05;;;;;;;;;;;;;;;;;;5346508;27;19956;-75
2023/07/14 08:52:36;;;;;;;;;;;;;;;;;;5345909;27;19903;-76
2023/07/14 08:55:08;;;;;;;;;;;;;;;;;;5343916;27;19922;-75
2023/07/14 08:57:39;;;;;;;;;;;;;;;;;;5345102;27;19959;-76
2023/07/14 09:00:10;;;;;;;;;;;;;;;;;;5345704;27;19904;-76
2023/07/14 09:02:41;;;;;;;;;;;;;;;;;;5345686;27;20018;-70
2023/07/14 09:05:12;;;;;;;;;;;;;;;;;;5346506;27;19903;-70
2023/07/14 09:07:45;;;;;;;;;;;;;;;;;;5344825;27;19908;-70
2023/07/14 09:10:16;;;;;;;;;;;;;;;;;;5346080;27;20007;-71
2023/07/14 09:12:49;;;;;;;;;;;;;;;;;;5345583;27;19982;-73
2023/07/14 09:15:21;;;;;;;;;;;;;;;;;;5345639;27;19909;-72
2023/07/14 09:17:52;;;;;;;;;;;;;;;;;;5345381;27;19950;-72
2023/07/14 09:20:23;;;;;;;;;;;;;;;;;;5345930;27;19958;-75
2023/07/14 09:22:54;;;;;;;;;;;;;;;;;;5345160;27;19942;-74
2023/07/14 09:25:26;;;;;;;;;;;;;;;;;;5345651;27;19907;-75
2023/07/14 09:27:57;;;;;;;;;;;;;;;;;;5345720;27;19993;-76
2023/07/14 09:30:28;;;;;;;;;;;;;;;;;;5344741;27;19910;-75
2023/07/14 09:32:59;;;;;;;;;;;;;;;;;;5345571;27;19915;-75
2023/07/14 09:35:30;;;;;;;;;;;;;;;;;;5344039;27;19903;-75
2023/07/14 09:38:03;;;;;;;;;;;;;;;;;;5345720;27;19911;-75
2023/07/14 09:40:34;;;;;;;;;;;;;;;;;;5345053;27;19910;-74
2023/07/14 09:43:05;;;;;;;;;;;;;;;;;;5344726;27;19903;-75
2023/07/14 09:45:36;;;;;;;;;;;;;;;;;;5345059;28;19955;-74
2023/07/14 09:48:07;;;;;;;;;;;;;;;;;;5345515;28;19903;-74
2023/07/14 09:50:38;;;;;;;;;;;;;;;;;;5344439;28;20239;-77
2023/07/14 09:53:10;;;;;;;;;;;;;;;;;;5345698;28;20039;-78
2023/07/14 09:55:41;;;;;;;;;;;;;;;;;;5346143;27;20001;-77
2023/07/14 09:58:12;;;;;;;;;;;;;;;;;;5349311;27;20263;-77
2023/07/14 10:00:43;;;;;;;;;;;;;;;;;;5349528;27;19904;-77
2023/07/14 10:03:16;;;;;;;;;;;;;;;;;;5349473;27;19903;-78
2023/07/14 10:05:47;;;;;;;;;;;;;;;;;;5349541;27;20269;-77
2023/07/14 10:08:18;;;;;;;;;;;;;;;;;;5350166;27;19910;-74
2023/07/14 10:10:49;;;;;;;;;;;;;;;;;;5348577;27;19963;-75
2023/07/14 10:13:22;;;;;;;;;;;;;;;;;;5349736;27;20509;-75
2023/07/14 10:15:53;;;;;;;;;;;;;;;;;;5349053;27;19903;-76
2023/07/14 10:18:24;;;;;;;;;;;;;;;;;;5348534;27;19956;-75
2023/07/14 10:20:55;;;;;;;;;;;;;;;;;;5349189;27;19951;-75
2023/07/14 10:23:27;;;;;;;;;;;;;;;;;;5349637;27;19915;-75
2023/07/14 10:25:58;;;;;;;;;;;;;;;;;;5348483;27;19903;-75
2023/07/14 10:28:29;;;;;;;;;;;;;;;;;;5349117;27;19903;-75
2023/07/14 10:31:01;;;;;;;;;;;;;;;;;;5349475;27;19916;-74
2023/07/14 10:33:32;;;;;;;;;;;;;;;;;;5348018;27;19911;-73
2023/07/14 10:36:03;;;;;;;;;;;;;;;;;;5349230;27;19907;-74
2023/07/14 10:38:34;;;;;;;;;;;;;;;;;;5347852;27;20338;-75
2023/07/14 10:41:06;;;;;;;;;;;;;;;;;;5349519;27;20259;-74
2023/07/14 10:43:38;;;;;;;;;;;;;;;;;;5348701;27;19903;-74
2023/07/14 10:46:09;;;;;;;;;;;;;;;;;;5348501;27;19954;-74
2023/07/14 10:48:40;;;;;;;;;;;;;;;;;;5348527;27;20338;-74
2023/07/14 10:51:11;;;;;;;;;;;;;;;;;;5349063;27;19903;-74
2023/07/14 10:53:43;;;;;;;;;;;;;;;;;;5347929;27;20641;-74
2023/07/14 10:56:14;;;;;;;;;;;;;;;;;;5349298;27;19986;-74
2023/07/14 10:58:45;;;;;;;;;;;;;;;;;;5348396;27;19961;-73
2023/07/14 11:01:16;;;;;;;;;;;;;;;;;;5348158;27;19903;-74
2023/07/14 11:03:47;;;;;;;;;;;;;;;;;;5348460;27;19907;-74
2023/07/14 11:06:18;;;;;;;;;;;;;;;;;;5348801;27;19910;-74
2023/07/14 11:08:49;;;;;;;;;;;;;;;;;;5346517;27;19908;-74
2023/07/14 11:11:20;;;;;;;;;;;;;;;;;;5348814;27;19948;-74
2023/07/14 11:13:51;;;;;;;;;;;;;;;;;;5347368;27;20657;-73
2023/07/14 11:16:22;;;;;;;;;;;;;;;;;;5348570;27;19911;-75
2023/07/14 11:18:54;;;;;;;;;;;;;;;;;;5348172;27;19964;-75
2023/07/14 11:21:25;;;;;;;;;;;;;;;;;;5347513;27;19910;-75
2023/07/14 11:23:56;;;;;;;;;;;;;;;;;;5348099;27;19904;-75
2023/07/14 11:26:27;;;;;;;;;;;;;;;;;;5348431;27;19908;-75
2023/07/14 11:28:59;;;;;;;;;;;;;;;;;;5347562;27;19958;-73
2023/07/14 11:31:30;;;;;;;;;;;;;;;;;;5347651;27;19922;-74
2023/07/14 11:34:02;;;;;;;;;;;;;;;;;;5348711;27;19904;-74
2023/07/14 11:36:33;;;;;;;;;;;;;;;;;;5346904;27;19904;-74
2023/07/14 11:39:04;;;;;;;;;;;;;;;;;;5348053;27;19911;-73
2023/07/14 11:41:35;;;;;;;;;;;;;;;;;;5347639;27;20008;-74
2023/07/14 11:44:06;;;;;;;;;;;;;;;;;;5347261;27;19910;-73
2023/07/14 11:46:37;;;;;;;;;;;;;;;;;;5347479;27;20377;-74
2023/07/14 11:49:08;;;;;;;;;;;;;;;;;;5346969;27;19903;-74
2023/07/14 11:51:40;;;;;;;;;;;;;;;;;;5347334;27;19950;-74
2023/07/14 11:54:11;;;;;;;;;;;;;;;;;;5347575;27;19903;-73
2023/07/14 11:56:44;;;;;;;;;;;;;;;;;;5346278;27;19910;-74
2023/07/14 11:59:16;;;;;;;;;;;;;;;;;;5347566;27;19911;-74
2023/07/14 12:01:47;;;;;;;;;;;;;;;;;;5347108;27;19990;-73
2023/07/14 12:04:18;;;;;;;;;;;;;;;;;;5347000;27;19909;-74
2023/07/14 12:06:49;;;;;;;;;;;;;;;;;;5347004;27;19954;-77
2023/07/14 12:09:20;;;;;;;;;;;;;;;;;;5347676;27;19909;-77
2023/07/14 12:11:51;;;;;;;;;;;;;;;;;;5345817;27;19903;-77
2023/07/14 12:14:22;;;;;;;;;;;;;;;;;;5347327;27;19975;-78
2023/07/14 12:16:53;;;;;;;;;;;;;;;;;;5339963;27;20298;-76
2023/07/14 12:19:26;;;;;;;;;;;;;;;;;;5303560;28;19965;-76
2023/07/14 12:21:58;;;;;;;;;;;;;;;;;;5304154;28;20013;-76
2023/07/14 12:24:29;;;;;;;;;;;;;;;;;;5303148;28;19904;-76
2023/07/14 12:27:00;;;;;;;;;;;;;;;;;;5303850;28;19904;-74
2023/07/14 12:29:31;;;;;;;;;;;;;;;;;;5303950;28;19911;-75
2023/07/14 12:32:02;;;;;;;;;;;;;;;;;;5303276;28;19963;-75
2023/07/14 12:34:33;;;;;;;;;;;;;;;;;;5303735;28;20330;-76
2023/07/14 12:37:05;;;;;;;;;;;;;;;;;;5303585;28;19908;-75
2023/07/14 12:39:36;;;;;;;;;;;;;;;;;;5302871;28;19912;-75
2023/07/14 12:42:07;;;;;;;;;;;;;;;;;;5304049;28;19908;-75
2023/07/14 12:44:38;;;;;;;;;;;;;;;;;;5303489;28;19947;-76
2023/07/14 12:47:10;;;;;;;;;;;;;;;;;;5303243;28;19939;-74
2023/07/14 12:49:42;;;;;;;;;;;;;;;;;;5303202;28;19908;-78
2023/07/14 12:52:13;;;;;;;;;;;;;;;;;;5303019;28;20270;-79
2023/07/14 12:54:44;;;;;;;;;;;;;;;;;;5303388;28;19907;-79
2023/07/14 12:57:15;;;;;;;;;;;;;;;;;;5304077;28;19912;-79
2023/07/14 12:59:46;;;;;;;;;;;;;;;;;;5302702;28;19912;-79
2023/07/14 13:02:18;;;;;;;;;;;;;;;;;;5304216;28;19939;-80
2023/07/14 13:04:49;;;;;;;;;;;;;;;;;;5303406;28;19935;-80
2023/07/14 13:07:20;;;;;;;;;;;;;;;;;;5303095;28;19915;-79
2023/07/14 13:09:51;;;;;;;;;;;;;;;;;;5303149;28;19948;-80
2023/07/14 13:12:22;;;;;;;;;;;;;;;;;;5303763;28;19911;-80
2023/07/14 13:14:54;;;;;;;;;;;;;;;;;;5302721;28;19956;-81
2023/07/14 13:17:25;;;;;;;;;;;;;;;;;;5302790;28;19912;-80
2023/07/14 13:19:56;;;;;;;;;;;;;;;;;;5302555;28;20282;-80
2023/07/14 13:22:29;;;;;;;;;;;;;;;;;;5302724;28;19908;-80
2023/07/14 13:25:00;;;;;;;;;;;;;;;;;;5303695;28;20289;-80
2023/07/14 13:27:31;;;;;;;;;;;;;;;;;;5303013;28;19904;-80
2023/07/14 13:30:03;;;;;;;;;;;;;;;;;;5303253;28;19911;-80
2023/07/14 13:32:34;;;;;;;;;;;;;;;;;;5302685;28;20328;-80
2023/07/14 13:35:05;;;;;;;;;;;;;;;;;;5303243;28;20275;-80
2023/07/14 13:37:37;;;;;;;;;;;;;;;;;;5303465;28;19965;-80
2023/07/14 13:40:08;;;;;;;;;;;;;;;;;;5303939;28;19957;-80
2023/07/14 13:42:39;;;;;;;;;;;;;;;;;;5303313;28;19904;-80
2023/07/14 13:45:10;;;;;;;;;;;;;;;;;;5304849;28;20331;-80
2023/07/14 13:47:42;;;;;;;;;;;;;;;;;;5305191;28;19904;-80
2023/07/14 13:50:13;;;;;;;;;;;;;;;;;;5303990;28;19904;-80
2023/07/14 13:52:44;;;;;;;;;;;;;;;;;;5302759;28;19908;-80
2023/07/14 13:55:15;;;;;;;;;;;;;;;;;;5305103;28;19911;-81
2023/07/14 13:57:46;;;;;;;;;;;;;;;;;;5301726;28;19916;-80
2023/07/14 14:00:17;;;;;;;;;;;;;;;;;;5303314;28;20256;-80
2023/07/14 14:02:48;;;;;;;;;;;;;;;;;;5302134;28;19904;-80
2023/07/14 14:05:20;;;;;;;;;;;;;;;;;;5303331;28;19904;-80
2023/07/14 14:07:51;;;;;;;;;;;;;;;;;;5302856;28;19904;-80
2023/07/14 14:10:22;;;;;;;;;;;;;;;;;;5303154;28;19904;-80
2023/07/14 14:12:53;;;;;;;;;;;;;;;;;;5306297;28;20003;-80
2023/07/14 14:15:24;;;;;;;;;;;;;;;;;;5306059;28;19995;-80
2023/07/14 14:17:56;;;;;;;;;;;;;;;;;;5303067;28;20283;-80
2023/07/14 14:20:27;;;;;;;;;;;;;;;;;;5302617;28;19908;-76
2023/07/14 14:23:04;;;;;;;;;;;;;;;;;;5302628;28;19927;-76
2023/07/14 14:25:36;;;;;;;;;;;;;;;;;;5301672;28;20294;-76
2023/07/14 14:28:07;;;;;;;;;;;;;;;;;;5303106;28;19915;-75
2023/07/14 14:30:38;;;;;;;;;;;;;;;;;;5301512;28;19938;-75
2023/07/14 14:33:10;;;;;;;;;;;;;;;;;;5302406;28;19923;-75
2023/07/14 14:35:41;;;;;;;;;;;;;;;;;;5302737;28;19904;-77
2023/07/14 14:38:12;;;;;;;;;;;;;;;;;;5302084;28;20443;-75
2023/07/14 14:40:44;;;;;;;;;;;;;;;;;;5302041;28;20286;-75
2023/07/14 14:43:15;;;;;;;;;;;;;;;;;;5304774;28;19910;-74
2023/07/14 14:45:47;;;;;;;;;;;;;;;;;;5305176;28;19904;-75
2023/07/14 14:48:18;;;;;;;;;;;;;;;;;;5306597;28;20362;-75
2023/07/14 14:50:49;;;;;;;;;;;;;;;;;;5306221;28;19907;-79
2023/07/14 14:53:20;;;;;;;;;;;;;;;;;;5305726;28;20354;-79
2023/07/14 14:55:51;;;;;;;;;;;;;;;;;;5305647;28;19904;-78
2023/07/14 14:58:22;;;;;;;;;;;;;;;;;;5309534;28;19962;-78
2023/07/14 15:00:54;;;;;;;;;;;;;;;;;;5304966;28;19910;-76
2023/07/14 15:03:25;;;;;;;;;;;;;;;;;;5305694;28;19908;-76
2023/07/14 15:05:56;;;;;;;;;;;;;;;;;;5305060;28;20311;-77
2023/07/14 15:08:28;;;;;;;;;;;;;;;;;;5305794;28;20011;-77
2023/07/14 15:10:59;;;;;;;;;;;;;;;;;;5305736;28;19903;-78
2023/07/14 15:13:30;;;;;;;;;;;;;;;;;;5304605;28;19904;-76
2023/07/14 15:16:01;;;;;;;;;;;;;;;;;;5306111;28;19904;-78
2023/07/14 15:18:33;;;;;;;;;;;;;;;;;;5305265;28;19912;-79
2023/07/14 15:21:05;;;;;;;;;;;;;;;;;;5305425;28;19957;-78
2023/07/14 15:23:37;;;;;;;;;;;;;;;;;;5305295;28;20320;-78
2023/07/14 15:26:08;;;;;;;;;;;;;;;;;;5305865;28;19904;-78
2023/07/14 15:28:39;;;;;;;;;;;;;;;;;;5304368;28;20359;-78
2023/07/14 15:31:10;;;;;;;;;;;;;;;;;;5305556;28;20375;-79
2023/07/14 15:33:42;;;;;;;;;;;;;;;;;;5305153;28;20007;-78
2023/07/14 15:36:13;;;;;;;;;;;;;;;;;;5304850;28;19950;-79
2023/07/14 15:38:44;;;;;;;;;;;;;;;;;;5304756;28;19916;-80
2023/07/14 15:41:15;;;;;;;;;;;;;;;;;;5304832;28;20316;-80
2023/07/14 15:43:47;;;;;;;;;;;;;;;;;;5304882;28;20003;-80
2023/07/14 15:46:19;;;;;;;;;;;;;;;;;;5305484;28;19911;-79
2023/07/14 15:48:50;;;;;;;;;;;;;;;;;;5303784;28;19908;-80
2023/07/14 15:51:21;;;;;;;;;;;;;;;;;;5305692;28;20404;-79
2023/07/14 15:53:52;;;;;;;;;;;;;;;;;;5304177;28;19949;-80
2023/07/14 15:56:24;;;;;;;;;;;;;;;;;;5304324;28;19974;-78
2023/07/14 15:58:56;;;;;;;;;;;;;;;;;;5304694;28;19912;-79
2023/07/14 16:01:27;;;;;;;;;;;;;;;;;;5304599;28;19908;-79
2023/07/14 16:03:58;;;;;;;;;;;;;;;;;;5303914;28;19900;-79
2023/07/14 16:06:29;;;;;;;;;;;;;;;;;;5304343;28;19943;-79
2023/07/14 16:09:01;;;;;;;;;;;;;;;;;;5304029;28;19904;-80
2023/07/14 16:11:32;;;;;;;;;;;;;;;;;;5304017;28;19970;-79
2023/07/14 16:14:04;;;;;;;;;;;;;;;;;;5304988;28;19949;-79
2023/07/14 16:16:35;;;;;;;;;;;;;;;;;;5303326;28;20392;-78
2023/07/14 16:19:06;;;;;;;;;;;;;;;;;;5304417;28;19963;-79
2023/07/14 16:21:38;;;;;;;;;;;;;;;;;;5304017;28;19980;-79
2023/07/14 16:24:09;;;;;;;;;;;;;;;;;;5303541;28;20001;-79
2023/07/14 16:26:40;;;;;;;;;;;;;;;;;;5303927;28;20277;-78
2023/07/14 16:29:12;;;;;;;;;;;;;;;;;;5304957;28;19904;-79
2023/07/14 16:31:44;;;;;;;;;;;;;;;;;;5302974;28;19920;-79
2023/07/14 16:34:15;;;;;;;;;;;;;;;;;;5304379;28;20366;-79
2023/07/14 16:36:46;;;;;;;;;;;;;;;;;;5303603;28;19980;-79
2023/07/14 16:39:17;;;;;;;;;;;;;;;;;;5303729;28;19935;-79
2023/07/14 16:41:48;;;;;;;;;;;;;;;;;;5303726;28;19904;-79
2023/07/14 16:44:20;;;;;;;;;;;;;;;;;;5303363;28;19904;-79
2023/07/14 16:46:51;;;;;;;;;;;;;;;;;;5303655;28;19912;-79
2023/07/14 16:49:22;;;;;;;;;;;;;;;;;;5304167;28;20346;-79
2023/07/14 16:51:54;;;;;;;;;;;;;;;;;;5303049;28;19908;-79
2023/07/14 16:54:25;;;;;;;;;;;;;;;;;;5303838;28;19908;-78
2023/07/14 16:56:57;;;;;;;;;;;;;;;;;;5314095;28;19972;-79
2023/07/14 16:59:28;;;;;;;;;;;;;;;;;;5324394;28;19911;-78
2023/07/14 17:01:59;;;;;;;;;;;;;;;;;;5324713;28;19904;-79
2023/07/14 17:04:31;;;;;;;;;;;;;;;;;;5324307;28;19904;-78
2023/07/14 17:07:03;;;;;;;;;;;;;;;;;;5323834;28;19949;-79
2023/07/14 17:09:34;;;;;;;;;;;;;;;;;;5324366;28;20381;-79
2023/07/14 17:12:05;;;;;;;;;;;;;;;;;;5324894;28;19907;-79